sensor_id;sensor_type;location;lat;lon;timestamp;pressure;altitude;pressure_sealevel;temperature;humidity
50430;BME280;36359;41.556;-8.418;2023-03-23T00:02:12;100133.03;;;15.26;88.85
50430;BME280;36359;41.556;-8.418;2023-03-23T00:04:38;100129.94;;;15.29;89.17
50430;BME280;36359;41.556;-8.418;2023-03-23T00:07:03;100129.19;;;15.35;88.38
50430;BME280;36359;41.556;-8.418;2023-03-23T00:09:29;100117.34;;;15.42;88.36
50430;BME280;36359;41.556;-8.418;2023-03-23T00:12:00;100116.47;;;15.27;89.44
50430;BME280;36359;41.556;-8.418;2023-03-23T00:14:31;100104.03;;;15.39;88.48
50430;BME280;36359;41.556;-8.418;2023-03-23T00:17:10;100099.88;;;15.43;88.14
50430;BME280;36359;41.556;-8.418;2023-03-23T00:19:37;100090.91;;;15.35;88.88
50430;BME280;36359;41.556;-8.418;2023-03-23T00:22:14;100094.63;;;15.42;88.26
50430;BME280;36359;41.556;-8.418;2023-03-23T00:24:41;100090.66;;;15.44;88.32
50430;BME280;36359;41.556;-8.418;2023-03-23T00:27:07;100087.72;;;15.46;87.97
50430;BME280;36359;41.556;-8.418;2023-03-23T00:29:34;100088.28;;;15.27;89.99
50430;BME280;36359;41.556;-8.418;2023-03-23T00:32:00;100079.22;;;15.26;89.80
50430;BME280;36359;41.556;-8.418;2023-03-23T00:34:31;100085.25;;;15.21;90.07
50430;BME280;36359;41.556;-8.418;2023-03-23T00:36:59;100083.69;;;15.27;89.86
50430;BME280;36359;41.556;-8.418;2023-03-23T00:39:26;100076.31;;;15.28;89.30
50430;BME280;36359;41.556;-8.418;2023-03-23T00:41:53;100073.38;;;15.14;90.87
50430;BME280;36359;41.556;-8.418;2023-03-23T00:44:30;100070.53;;;15.08;91.69
50430;BME280;36359;41.556;-8.418;2023-03-23T00:46:57;100078.44;;;15.17;90.64
50430;BME280;36359;41.556;-8.418;2023-03-23T00:49:25;100070.19;;;15.26;89.88
50430;BME280;36359;41.556;-8.418;2023-03-23T00:51:52;100067.78;;;15.08;91.67
50430;BME280;36359;41.556;-8.418;2023-03-23T00:54:19;100074.47;;;15.05;91.46
50430;BME280;36359;41.556;-8.418;2023-03-23T00:56:48;100066.59;;;15.10;91.53
50430;BME280;36359;41.556;-8.418;2023-03-23T00:59:15;100060.88;;;14.97;92.92
50430;BME280;36359;41.556;-8.418;2023-03-23T01:01:41;100061.56;;;14.99;92.86
50430;BME280;36359;41.556;-8.418;2023-03-23T01:04:08;100042.91;;;15.03;92.28
50430;BME280;36359;41.556;-8.418;2023-03-23T01:09:03;100043.19;;;14.93;93.12
50430;BME280;36359;41.556;-8.418;2023-03-23T01:11:28;100037.34;;;14.96;93.17
50430;BME280;36359;41.556;-8.418;2023-03-23T01:13:54;100041.59;;;14.98;92.31
50430;BME280;36359;41.556;-8.418;2023-03-23T01:16:20;100037.34;;;14.96;92.86
50430;BME280;36359;41.556;-8.418;2023-03-23T01:18:47;100036.59;;;15.02;92.20
50430;BME280;36359;41.556;-8.418;2023-03-23T01:21:15;100033.03;;;15.02;92.93
50430;BME280;36359;41.556;-8.418;2023-03-23T01:23:42;100031.72;;;15.12;91.36
50430;BME280;36359;41.556;-8.418;2023-03-23T01:26:14;100029.06;;;15.04;91.94
50430;BME280;36359;41.556;-8.418;2023-03-23T01:28:40;100038.78;;;15.07;92.01
50430;BME280;36359;41.556;-8.418;2023-03-23T01:31:08;100037.75;;;15.08;91.79
50430;BME280;36359;41.556;-8.418;2023-03-23T01:33:35;100029.25;;;15.03;92.98
50430;BME280;36359;41.556;-8.418;2023-03-23T01:36:06;100036.22;;;15.05;91.98
50430;BME280;36359;41.556;-8.418;2023-03-23T01:38:34;100030.19;;;14.95;93.14
50430;BME280;36359;41.556;-8.418;2023-03-23T01:41:00;100030.50;;;15.00;92.28
50430;BME280;36359;41.556;-8.418;2023-03-23T01:43:26;100028.03;;;15.05;92.52
50430;BME280;36359;41.556;-8.418;2023-03-23T01:45:52;100025.66;;;15.02;92.01
50430;BME280;36359;41.556;-8.418;2023-03-23T01:48:23;100027.50;;;15.10;91.74
50430;BME280;36359;41.556;-8.418;2023-03-23T01:51:03;100030.88;;;15.12;91.67
50430;BME280;36359;41.556;-8.418;2023-03-23T01:53:39;100025.75;;;15.09;91.79
50430;BME280;36359;41.556;-8.418;2023-03-23T01:56:09;100022.41;;;15.07;92.25
50430;BME280;36359;41.556;-8.418;2023-03-23T01:58:38;100024.47;;;15.19;90.86
50430;BME280;36359;41.556;-8.418;2023-03-23T02:01:07;100015.81;;;15.16;90.81
50430;BME280;36359;41.556;-8.418;2023-03-23T02:03:39;100027.38;;;15.03;92.28
50430;BME280;36359;41.556;-8.418;2023-03-23T02:06:07;100021.94;;;15.03;92.13
50430;BME280;36359;41.556;-8.418;2023-03-23T02:08:38;100014.19;;;14.92;92.85
50430;BME280;36359;41.556;-8.418;2023-03-23T02:11:20;100024.72;;;14.95;92.73
50430;BME280;36359;41.556;-8.418;2023-03-23T02:13:47;100014.44;;;14.97;92.29
50430;BME280;36359;41.556;-8.418;2023-03-23T02:35:48;99978.84;;;14.90;92.77
50430;BME280;36359;41.556;-8.418;2023-03-23T02:38:20;99974.59;;;14.88;93.29
50430;BME280;36359;41.556;-8.418;2023-03-23T02:40:49;99968.66;;;14.84;93.49
50430;BME280;36359;41.556;-8.418;2023-03-23T02:43:21;99956.91;;;14.84;93.19
50430;BME280;36359;41.556;-8.418;2023-03-23T02:45:50;99964.06;;;14.99;92.59
50430;BME280;36359;41.556;-8.418;2023-03-23T02:48:20;99974.81;;;15.01;92.54
50430;BME280;36359;41.556;-8.418;2023-03-23T02:50:51;99964.63;;;14.95;92.93
50430;BME280;36359;41.556;-8.418;2023-03-23T02:53:21;99959.41;;;14.85;93.63
50430;BME280;36359;41.556;-8.418;2023-03-23T02:55:52;99948.03;;;14.96;92.56
50430;BME280;36359;41.556;-8.418;2023-03-23T02:58:21;99946.53;;;14.94;92.71
50430;BME280;36359;41.556;-8.418;2023-03-23T03:00:51;99946.81;;;14.84;93.63
50430;BME280;36359;41.556;-8.418;2023-03-23T03:03:22;99942.56;;;14.96;92.65
50430;BME280;36359;41.556;-8.418;2023-03-23T03:08:43;99938.72;;;14.91;92.92
50430;BME280;36359;41.556;-8.418;2023-03-23T03:11:13;99933.63;;;15.03;91.96
50430;BME280;36359;41.556;-8.418;2023-03-23T03:16:21;99935.03;;;14.84;93.60
50430;BME280;36359;41.556;-8.418;2023-03-23T03:21:44;99929.75;;;14.97;92.44
50430;BME280;36359;41.556;-8.418;2023-03-23T03:24:16;99943.78;;;14.94;92.38
50430;BME280;36359;41.556;-8.418;2023-03-23T03:26:51;99934.66;;;14.87;92.86
50430;BME280;36359;41.556;-8.418;2023-03-23T03:29:31;99945.59;;;14.87;92.86
50430;BME280;36359;41.556;-8.418;2023-03-23T03:31:59;99934.38;;;14.96;92.19
50430;BME280;36359;41.556;-8.418;2023-03-23T03:34:27;99930.13;;;14.94;92.36
50430;BME280;36359;41.556;-8.418;2023-03-23T03:36:54;99932.59;;;14.89;92.53
50430;BME280;36359;41.556;-8.418;2023-03-23T03:39:26;99936.09;;;14.83;92.71
50430;BME280;36359;41.556;-8.418;2023-03-23T03:41:52;99938.63;;;14.84;92.82
50430;BME280;36359;41.556;-8.418;2023-03-23T03:44:18;99939.19;;;14.80;93.00
50430;BME280;36359;41.556;-8.418;2023-03-23T03:46:44;99927.13;;;14.74;93.42
50430;BME280;36359;41.556;-8.418;2023-03-23T03:49:11;99930.50;;;14.76;93.49
50430;BME280;36359;41.556;-8.418;2023-03-23T03:51:41;99943.13;;;14.77;93.46
50430;BME280;36359;41.556;-8.418;2023-03-23T03:54:14;99928.34;;;14.71;93.50
50430;BME280;36359;41.556;-8.418;2023-03-23T03:56:41;99928.72;;;14.68;94.09
50430;BME280;36359;41.556;-8.418;2023-03-23T03:59:30;99932.69;;;14.81;93.40
50430;BME280;36359;41.556;-8.418;2023-03-23T04:02:22;99930.13;;;14.79;93.45
50430;BME280;36359;41.556;-8.418;2023-03-23T04:04:50;99924.88;;;14.77;93.77
50430;BME280;36359;41.556;-8.418;2023-03-23T04:07:20;99916.47;;;14.64;94.76
50430;BME280;36359;41.556;-8.418;2023-03-23T04:09:47;99910.81;;;14.66;94.69
50430;BME280;36359;41.556;-8.418;2023-03-23T04:12:15;99905.06;;;14.61;95.07
50430;BME280;36359;41.556;-8.418;2023-03-23T04:14:56;99906.41;;;14.65;95.10
50430;BME280;36359;41.556;-8.418;2023-03-23T04:17:27;99906.03;;;14.53;96.08
50430;BME280;36359;41.556;-8.418;2023-03-23T04:19:54;99907.25;;;14.65;95.02
50430;BME280;36359;41.556;-8.418;2023-03-23T04:22:23;99899.56;;;14.46;96.59
50430;BME280;36359;41.556;-8.418;2023-03-23T04:25:00;99900.28;;;14.63;95.52
50430;BME280;36359;41.556;-8.418;2023-03-23T04:27:32;99896.81;;;14.46;96.77
50430;BME280;36359;41.556;-8.418;2023-03-23T04:30:00;99896.53;;;14.41;97.13
50430;BME280;36359;41.556;-8.418;2023-03-23T04:32:50;99900.97;;;14.42;97.40
50430;BME280;36359;41.556;-8.418;2023-03-23T04:35:22;99905.59;;;14.41;97.72
50430;BME280;36359;41.556;-8.418;2023-03-23T04:37:59;99898.72;;;14.45;97.13
50430;BME280;36359;41.556;-8.418;2023-03-23T04:40:25;99891.16;;;14.32;98.11
50430;BME280;36359;41.556;-8.418;2023-03-23T04:43:22;99894.09;;;14.46;96.98
50430;BME280;36359;41.556;-8.418;2023-03-23T04:46:15;99889.94;;;14.50;96.56
50430;BME280;36359;41.556;-8.418;2023-03-23T04:48:45;99883.91;;;14.63;95.39
50430;BME280;36359;41.556;-8.418;2023-03-23T04:51:19;99882.00;;;14.63;95.83
50430;BME280;36359;41.556;-8.418;2023-03-23T04:53:48;99883.81;;;14.56;96.00
50430;BME280;36359;41.556;-8.418;2023-03-23T04:56:14;99889.00;;;14.43;97.80
50430;BME280;36359;41.556;-8.418;2023-03-23T04:58:43;99884.22;;;14.45;97.40
50430;BME280;36359;41.556;-8.418;2023-03-23T05:01:30;99878.09;;;14.43;97.55
50430;BME280;36359;41.556;-8.418;2023-03-23T05:04:16;99867.03;;;14.59;96.30
50430;BME280;36359;41.556;-8.418;2023-03-23T05:06:45;99873.16;;;14.61;95.61
50430;BME280;36359;41.556;-8.418;2023-03-23T05:09:18;99868.91;;;14.73;95.39
50430;BME280;36359;41.556;-8.418;2023-03-23T05:11:46;99865.16;;;14.74;95.31
50430;BME280;36359;41.556;-8.418;2023-03-23T05:14:12;99861.59;;;14.74;95.23
50430;BME280;36359;41.556;-8.418;2023-03-23T05:16:39;99859.69;;;14.74;95.47
50430;BME280;36359;41.556;-8.418;2023-03-23T05:19:06;99855.38;;;14.65;95.99
50430;BME280;36359;41.556;-8.418;2023-03-23T05:21:33;99877.31;;;14.72;95.19
50430;BME280;36359;41.556;-8.418;2023-03-23T05:23:59;99879.38;;;14.85;94.22
50430;BME280;36359;41.556;-8.418;2023-03-23T05:26:27;99888.16;;;14.95;93.37
50430;BME280;36359;41.556;-8.418;2023-03-23T05:29:03;99887.69;;;14.91;93.19
50430;BME280;36359;41.556;-8.418;2023-03-23T05:31:50;99892.94;;;14.93;93.17
50430;BME280;36359;41.556;-8.418;2023-03-23T05:34:16;99891.63;;;14.89;93.06
50430;BME280;36359;41.556;-8.418;2023-03-23T05:36:48;99887.47;;;14.78;94.53
50430;BME280;36359;41.556;-8.418;2023-03-23T05:39:28;99887.94;;;14.82;94.28
50430;BME280;36359;41.556;-8.418;2023-03-23T05:42:06;99881.84;;;14.80;94.32
50430;BME280;36359;41.556;-8.418;2023-03-23T05:44:46;99880.03;;;14.72;95.18
50430;BME280;36359;41.556;-8.418;2023-03-23T05:47:13;99879.38;;;14.85;94.29
50430;BME280;36359;41.556;-8.418;2023-03-23T05:49:43;99860.91;;;14.57;97.56
50430;BME280;36359;41.556;-8.418;2023-03-23T05:52:12;99859.03;;;14.58;97.67
50430;BME280;36359;41.556;-8.418;2023-03-23T05:54:37;99866.75;;;14.69;96.17
50430;BME280;36359;41.556;-8.418;2023-03-23T05:57:03;99877.59;;;14.62;97.45
50430;BME280;36359;41.556;-8.418;2023-03-23T05:59:52;99870.91;;;14.65;97.53
50430;BME280;36359;41.556;-8.418;2023-03-23T06:02:23;99876.56;;;14.63;98.25
50430;BME280;36359;41.556;-8.418;2023-03-23T06:04:51;99867.03;;;14.59;97.95
50430;BME280;36359;41.556;-8.418;2023-03-23T06:07:27;99871.72;;;14.50;98.38
50430;BME280;36359;41.556;-8.418;2023-03-23T06:09:59;99871.63;;;14.59;96.53
50430;BME280;36359;41.556;-8.418;2023-03-23T06:12:36;99869.28;;;14.56;97.62
50430;BME280;36359;41.556;-8.418;2023-03-23T06:15:02;99874.09;;;14.53;97.02
50430;BME280;36359;41.556;-8.418;2023-03-23T06:17:49;99869.81;;;14.51;97.76
50430;BME280;36359;41.556;-8.418;2023-03-23T06:20:16;99880.44;;;14.46;97.89
50430;BME280;36359;41.556;-8.418;2023-03-23T06:22:42;99876.66;;;14.47;98.06
50430;BME280;36359;41.556;-8.418;2023-03-23T06:25:12;99884.50;;;14.50;97.83
50430;BME280;36359;41.556;-8.418;2023-03-23T06:27:40;99879.03;;;14.50;96.98
50430;BME280;36359;41.556;-8.418;2023-03-23T06:30:08;99880.75;;;14.51;96.86
50430;BME280;36359;41.556;-8.418;2023-03-23T06:32:34;99874.94;;;14.54;96.69
50430;BME280;36359;41.556;-8.418;2023-03-23T06:35:02;99875.66;;;14.48;96.67
50430;BME280;36359;41.556;-8.418;2023-03-23T06:37:47;99865.53;;;14.57;95.86
50430;BME280;36359;41.556;-8.418;2023-03-23T06:40:18;99872.13;;;14.62;95.52
50430;BME280;36359;41.556;-8.418;2023-03-23T06:42:53;99880.41;;;14.54;95.95
50430;BME280;36359;41.556;-8.418;2023-03-23T06:45:39;99880.06;;;14.49;96.22
50430;BME280;36359;41.556;-8.418;2023-03-23T06:48:35;99869.47;;;14.54;96.11
50430;BME280;36359;41.556;-8.418;2023-03-23T06:51:01;99868.63;;;14.53;95.81
50430;BME280;36359;41.556;-8.418;2023-03-23T06:53:28;99876.72;;;14.62;95.14
50430;BME280;36359;41.556;-8.418;2023-03-23T06:55:56;99875.56;;;14.41;96.38
50430;BME280;36359;41.556;-8.418;2023-03-23T06:58:22;99878.16;;;14.35;96.91
50430;BME280;36359;41.556;-8.418;2023-03-23T07:00:56;99884.75;;;14.40;96.59
50430;BME280;36359;41.556;-8.418;2023-03-23T07:03:27;99885.44;;;14.42;96.20
50430;BME280;36359;41.556;-8.418;2023-03-23T07:05:54;99863.41;;;14.44;95.55
50430;BME280;36359;41.556;-8.418;2023-03-23T07:08:25;99860.53;;;14.60;94.48
50430;BME280;36359;41.556;-8.418;2023-03-23T07:10:55;99862.19;;;14.46;95.37
50430;BME280;36359;41.556;-8.418;2023-03-23T07:13:25;99877.91;;;14.44;95.52
50430;BME280;36359;41.556;-8.418;2023-03-23T07:15:56;99886.09;;;14.44;95.10
50430;BME280;36359;41.556;-8.418;2023-03-23T07:18:23;99883.09;;;14.39;95.42
50430;BME280;36359;41.556;-8.418;2023-03-23T07:20:52;99883.19;;;14.46;95.60
50430;BME280;36359;41.556;-8.418;2023-03-23T07:23:21;99874.16;;;14.45;95.27
50430;BME280;36359;41.556;-8.418;2023-03-23T07:25:58;99870.69;;;14.51;95.19
50430;BME280;36359;41.556;-8.418;2023-03-23T07:28:30;99874.88;;;14.62;94.36
50430;BME280;36359;41.556;-8.418;2023-03-23T07:31:04;99873.72;;;14.71;94.05
50430;BME280;36359;41.556;-8.418;2023-03-23T07:33:30;99874.19;;;14.75;93.58
50430;BME280;36359;41.556;-8.418;2023-03-23T07:36:00;99865.72;;;14.85;93.03
50430;BME280;36359;41.556;-8.418;2023-03-23T07:38:27;99872.03;;;14.85;92.90
50430;BME280;36359;41.556;-8.418;2023-03-23T07:40:54;99882.38;;;14.90;92.72
50430;BME280;36359;41.556;-8.418;2023-03-23T07:43:20;99872.50;;;15.04;91.87
50430;BME280;36359;41.556;-8.418;2023-03-23T07:46:01;99868.53;;;15.06;91.45
50430;BME280;36359;41.556;-8.418;2023-03-23T07:48:38;99877.84;;;14.82;92.87
50430;BME280;36359;41.556;-8.418;2023-03-23T07:51:05;99884.28;;;14.89;92.43
50430;BME280;36359;41.556;-8.418;2023-03-23T07:53:31;99881.25;;;14.99;92.03
50430;BME280;36359;41.556;-8.418;2023-03-23T07:56:12;99887.31;;;14.94;92.17
50430;BME280;36359;41.556;-8.418;2023-03-23T07:58:51;99896.25;;;15.03;91.77
50430;BME280;36359;41.556;-8.418;2023-03-23T08:01:18;99896.50;;;15.08;91.34
50430;BME280;36359;41.556;-8.418;2023-03-23T08:04:04;99895.19;;;15.04;91.42
50430;BME280;36359;41.556;-8.418;2023-03-23T08:06:55;99886.91;;;14.97;91.96
50430;BME280;36359;41.556;-8.418;2023-03-23T08:09:34;99896.31;;;15.10;91.38
50430;BME280;36359;41.556;-8.418;2023-03-23T08:12:23;99909.03;;;15.17;91.02
50430;BME280;36359;41.556;-8.418;2023-03-23T08:15:12;99903.69;;;15.09;91.28
50430;BME280;36359;41.556;-8.418;2023-03-23T08:18:00;99899.81;;;15.18;90.77
50430;BME280;36359;41.556;-8.418;2023-03-23T08:20:47;99908.56;;;15.14;91.96
50430;BME280;36359;41.556;-8.418;2023-03-23T08:23:35;99911.88;;;15.09;91.93
50430;BME280;36359;41.556;-8.418;2023-03-23T08:26:21;99918.28;;;15.16;91.36
50430;BME280;36359;41.556;-8.418;2023-03-23T08:29:04;99920.69;;;15.26;90.67
50430;BME280;36359;41.556;-8.418;2023-03-23T08:31:42;99921.34;;;15.43;89.90
50430;BME280;36359;41.556;-8.418;2023-03-23T08:34:33;99933.13;;;15.43;90.26
50430;BME280;36359;41.556;-8.418;2023-03-23T08:37:04;99940.31;;;15.30;91.07
50430;BME280;36359;41.556;-8.418;2023-03-23T08:39:54;99936.63;;;15.37;91.21
50430;BME280;36359;41.556;-8.418;2023-03-23T08:42:50;99933.72;;;15.39;91.33
50430;BME280;36359;41.556;-8.418;2023-03-23T08:45:51;99922.41;;;15.42;90.86
50430;BME280;36359;41.556;-8.418;2023-03-23T08:48:37;99922.31;;;15.35;92.55
50430;BME280;36359;41.556;-8.418;2023-03-23T08:51:39;99930.63;;;15.27;93.46
50430;BME280;36359;41.556;-8.418;2023-03-23T08:54:26;99919.94;;;15.17;93.90
50430;BME280;36359;41.556;-8.418;2023-03-23T08:57:11;99921.75;;;15.25;93.70
50430;BME280;36359;41.556;-8.418;2023-03-23T08:59:54;99923.63;;;15.25;93.69
50430;BME280;36359;41.556;-8.418;2023-03-23T09:02:54;99926.75;;;15.21;95.68
50430;BME280;36359;41.556;-8.418;2023-03-23T09:05:27;99919.13;;;15.17;97.16
50430;BME280;36359;41.556;-8.418;2023-03-23T09:08:15;99913.97;;;15.43;94.93
50430;BME280;36359;41.556;-8.418;2023-03-23T09:10:40;99917.94;;;15.41;94.72
50430;BME280;36359;41.556;-8.418;2023-03-23T09:13:06;99918.69;;;15.50;94.37
50430;BME280;36359;41.556;-8.418;2023-03-23T09:15:32;99919.69;;;15.78;92.80
50430;BME280;36359;41.556;-8.418;2023-03-23T09:17:59;99929.72;;;15.93;91.71
50430;BME280;36359;41.556;-8.418;2023-03-23T09:20:28;99934.47;;;15.84;92.72
50430;BME280;36359;41.556;-8.418;2023-03-23T09:22:55;99923.59;;;15.90;91.75
50430;BME280;36359;41.556;-8.418;2023-03-23T09:25:24;99916.72;;;15.95;91.08
50430;BME280;36359;41.556;-8.418;2023-03-23T09:27:53;99918.97;;;15.91;91.79
50430;BME280;36359;41.556;-8.418;2023-03-23T09:30:22;99922.56;;;15.92;92.50
50430;BME280;36359;41.556;-8.418;2023-03-23T09:32:48;99927.31;;;16.04;91.79
50430;BME280;36359;41.556;-8.418;2023-03-23T09:35:15;99923.03;;;15.95;91.59
50430;BME280;36359;41.556;-8.418;2023-03-23T09:37:43;99936.56;;;15.82;92.84
50430;BME280;36359;41.556;-8.418;2023-03-23T09:46:04;99939.22;;;15.97;92.71
50430;BME280;36359;41.556;-8.418;2023-03-23T09:48:54;99945.19;;;16.00;93.15
50430;BME280;36359;41.556;-8.418;2023-03-23T09:54:27;99950.84;;;15.99;93.36
50430;BME280;36359;41.556;-8.418;2023-03-23T09:56:54;99955.34;;;16.06;92.53
50430;BME280;36359;41.556;-8.418;2023-03-23T09:59:40;99954.94;;;16.31;92.60
50430;BME280;36359;41.556;-8.418;2023-03-23T10:02:23;99952.16;;;16.24;92.39
50430;BME280;36359;41.556;-8.418;2023-03-23T10:04:54;99948.56;;;16.45;90.71
50430;BME280;36359;41.556;-8.418;2023-03-23T10:07:26;99964.22;;;16.30;90.71
50430;BME280;36359;41.556;-8.418;2023-03-23T10:09:55;99971.56;;;16.51;90.17
50430;BME280;36359;41.556;-8.418;2023-03-23T10:12:42;99977.84;;;16.73;89.38
50430;BME280;36359;41.556;-8.418;2023-03-23T10:15:21;99988.44;;;16.54;90.08
50430;BME280;36359;41.556;-8.418;2023-03-23T10:20:58;100001.16;;;16.62;90.32
50430;BME280;36359;41.556;-8.418;2023-03-23T10:26:36;100005.84;;;16.47;91.53
50430;BME280;36359;41.556;-8.418;2023-03-23T10:31:35;100003.91;;;16.41;91.67
50430;BME280;36359;41.556;-8.418;2023-03-23T10:34:31;100007.53;;;16.26;93.96
50430;BME280;36359;41.556;-8.418;2023-03-23T10:37:12;100014.00;;;16.40;92.38
50430;BME280;36359;41.556;-8.418;2023-03-23T10:39:49;100018.25;;;16.43;93.71
50430;BME280;36359;41.556;-8.418;2023-03-23T10:42:28;100003.97;;;16.26;96.30
50430;BME280;36359;41.556;-8.418;2023-03-23T10:44:59;100004.78;;;16.05;97.22
50430;BME280;36359;41.556;-8.418;2023-03-23T10:47:26;100001.72;;;15.93;99.46
50430;BME280;36359;41.556;-8.418;2023-03-23T10:49:58;99990.31;;;15.89;100.00
50430;BME280;36359;41.556;-8.418;2023-03-23T10:52:37;99984.41;;;16.07;99.02
50430;BME280;36359;41.556;-8.418;2023-03-23T10:55:14;99983.63;;;16.13;97.90
50430;BME280;36359;41.556;-8.418;2023-03-23T10:57:44;99975.81;;;16.10;100.00
50430;BME280;36359;41.556;-8.418;2023-03-23T11:00:18;99979.38;;;16.11;99.84
50430;BME280;36359;41.556;-8.418;2023-03-23T11:05:36;99983.75;;;16.05;100.00
50430;BME280;36359;41.556;-8.418;2023-03-23T11:08:03;99987.47;;;15.98;100.00
50430;BME280;36359;41.556;-8.418;2023-03-23T11:10:41;99991.84;;;16.13;100.00
50430;BME280;36359;41.556;-8.418;2023-03-23T11:13:15;99997.47;;;16.27;98.41
50430;BME280;36359;41.556;-8.418;2023-03-23T11:15:43;99986.50;;;16.27;100.00
50430;BME280;36359;41.556;-8.418;2023-03-23T11:20:57;99979.31;;;16.26;100.00
50430;BME280;36359;41.556;-8.418;2023-03-23T11:23:32;99991.59;;;16.30;97.60
50430;BME280;36359;41.556;-8.418;2023-03-23T11:28:56;99995.88;;;16.18;99.94
50430;BME280;36359;41.556;-8.418;2023-03-23T11:31:26;99983.91;;;16.19;97.98
50430;BME280;36359;41.556;-8.418;2023-03-23T11:36:19;99976.84;;;16.52;96.55
50430;BME280;36359;41.556;-8.418;2023-03-23T11:38:46;99973.72;;;16.34;97.77
50430;BME280;36359;41.556;-8.418;2023-03-23T11:41:16;99958.34;;;16.33;96.81
50430;BME280;36359;41.556;-8.418;2023-03-23T11:43:45;99970.72;;;16.29;97.63
50430;BME280;36359;41.556;-8.418;2023-03-23T11:46:34;99976.06;;;16.37;96.97
50430;BME280;36359;41.556;-8.418;2023-03-23T11:49:05;99969.59;;;16.23;98.03
50430;BME280;36359;41.556;-8.418;2023-03-23T11:51:58;99967.97;;;16.29;95.96
50430;BME280;36359;41.556;-8.418;2023-03-23T11:54:33;99974.16;;;16.38;95.31
50430;BME280;36359;41.556;-8.418;2023-03-23T11:56:59;99967.69;;;16.39;94.36
50430;BME280;36359;41.556;-8.418;2023-03-23T11:59:32;99982.13;;;16.54;93.98
50430;BME280;36359;41.556;-8.418;2023-03-23T12:02:21;99984.66;;;16.55;93.84
50430;BME280;36359;41.556;-8.418;2023-03-23T12:05:10;99981.53;;;16.58;93.61
50430;BME280;36359;41.556;-8.418;2023-03-23T12:07:45;99973.06;;;16.53;93.80
50430;BME280;36359;41.556;-8.418;2023-03-23T12:13:14;99976.69;;;16.61;92.99
50430;BME280;36359;41.556;-8.418;2023-03-23T12:19:29;99984.38;;;16.72;93.04
50430;BME280;36359;41.556;-8.418;2023-03-23T12:30:42;99987.97;;;17.29;92.65
50430;BME280;36359;41.556;-8.418;2023-03-23T12:37:01;99989.59;;;17.16;93.18
50430;BME280;36359;41.556;-8.418;2023-03-23T12:48:10;99988.63;;;17.31;92.45
50430;BME280;36359;41.556;-8.418;2023-03-23T12:50:59;99985.19;;;17.22;92.91
50430;BME280;36359;41.556;-8.418;2023-03-23T12:53:31;99978.25;;;17.26;92.94
50430;BME280;36359;41.556;-8.418;2023-03-23T12:59:16;99978.84;;;17.15;94.45
50430;BME280;36359;41.556;-8.418;2023-03-23T13:01:51;99968.03;;;16.78;97.62
50430;BME280;36359;41.556;-8.418;2023-03-23T13:04:25;99970.88;;;16.70;97.49
50430;BME280;36359;41.556;-8.418;2023-03-23T13:06:54;99976.31;;;16.64;97.74
50430;BME280;36359;41.556;-8.418;2023-03-23T13:10:03;99977.44;;;16.48;99.20
50430;BME280;36359;41.556;-8.418;2023-03-23T13:12:27;99957.81;;;16.23;100.00
50430;BME280;36359;41.556;-8.418;2023-03-23T13:15:23;99953.53;;;16.13;100.00
50430;BME280;36359;41.556;-8.418;2023-03-23T13:18:23;99944.13;;;16.01;100.00
50430;BME280;36359;41.556;-8.418;2023-03-23T13:23:49;99942.06;;;16.03;100.00
50430;BME280;36359;41.556;-8.418;2023-03-23T13:26:23;99933.06;;;16.09;100.00
50430;BME280;36359;41.556;-8.418;2023-03-23T13:29:08;99880.03;;;15.89;100.00
50430;BME280;36359;41.556;-8.418;2023-03-23T13:31:38;99912.06;;;16.17;99.47
50430;BME280;36359;41.556;-8.418;2023-03-23T13:36:42;99918.53;;;16.30;99.63
50430;BME280;36359;41.556;-8.418;2023-03-23T13:39:24;99914.81;;;16.17;100.00
50430;BME280;36359;41.556;-8.418;2023-03-23T13:45:18;99896.69;;;15.94;100.00
50430;BME280;36359;41.556;-8.418;2023-03-23T13:47:45;99937.47;;;16.32;98.95
50430;BME280;36359;41.556;-8.418;2023-03-23T13:52:54;99902.03;;;16.02;100.00
50430;BME280;36359;41.556;-8.418;2023-03-23T13:55:47;99919.53;;;16.29;98.61
50430;BME280;36359;41.556;-8.418;2023-03-23T13:58:25;99897.50;;;16.09;100.00
50430;BME280;36359;41.556;-8.418;2023-03-23T14:03:39;99895.47;;;16.18;100.00
50430;BME280;36359;41.556;-8.418;2023-03-23T14:06:13;99846.28;;;16.03;99.00
50430;BME280;36359;41.556;-8.418;2023-03-23T14:09:10;99879.75;;;16.27;99.05
50430;BME280;36359;41.556;-8.418;2023-03-23T14:11:57;99912.56;;;16.48;99.33
50430;BME280;36359;41.556;-8.418;2023-03-23T14:14:32;99860.47;;;16.13;98.75
50430;BME280;36359;41.556;-8.418;2023-03-23T14:17:28;99862.41;;;16.20;100.00
50430;BME280;36359;41.556;-8.418;2023-03-23T14:19:54;99871.84;;;16.17;98.27
50430;BME280;36359;41.556;-8.418;2023-03-23T14:22:37;99900.84;;;16.33;97.74
50430;BME280;36359;41.556;-8.418;2023-03-23T14:25:16;99931.22;;;16.38;99.43
50430;BME280;36359;41.556;-8.418;2023-03-23T14:27:44;99903.06;;;16.23;97.29
50430;BME280;36359;41.556;-8.418;2023-03-23T14:30:22;99905.94;;;16.15;98.22
50430;BME280;36359;41.556;-8.418;2023-03-23T14:33:03;99888.47;;;15.94;100.00
50430;BME280;36359;41.556;-8.418;2023-03-23T14:35:33;99931.22;;;16.17;100.00
50430;BME280;36359;41.556;-8.418;2023-03-23T14:38:00;99919.00;;;16.12;100.00
50430;BME280;36359;41.556;-8.418;2023-03-23T14:40:27;99867.53;;;16.01;100.00
50430;BME280;36359;41.556;-8.418;2023-03-23T14:42:54;99876.81;;;16.28;100.00
50430;BME280;36359;41.556;-8.418;2023-03-23T14:45:23;99868.41;;;16.30;100.00
50430;BME280;36359;41.556;-8.418;2023-03-23T14:48:10;99907.88;;;16.42;99.79
50430;BME280;36359;41.556;-8.418;2023-03-23T14:50:48;99854.94;;;16.07;98.14
50430;BME280;36359;41.556;-8.418;2023-03-23T14:53:25;99859.66;;;16.20;98.92
50430;BME280;36359;41.556;-8.418;2023-03-23T14:55:53;99863.31;;;16.27;97.67
50430;BME280;36359;41.556;-8.418;2023-03-23T14:58:26;99862.28;;;16.28;97.13
50430;BME280;36359;41.556;-8.418;2023-03-23T15:01:28;99845.91;;;16.06;99.68
50430;BME280;36359;41.556;-8.418;2023-03-23T15:04:29;99846.06;;;16.05;99.15
50430;BME280;36359;41.556;-8.418;2023-03-23T15:06:59;99882.38;;;16.13;98.77